Terminal Aerodrome Forecast
Issued by NWS

Home | Current Version | Previous Version | Text Only | Print | Product List | Glossary On
Versions: 1 2 3 4 5 6 7 8 9 10 11 12 13 14 15 16 17
000
FTUS46 KEKA 281132
TAFCEC
TAF
KCEC 281132Z 2812/2912 36010KT P6SM SKC
     FM281600 36012KT P6SM SKC
     FM282200 34017G30KT P6SM SKC
     FM290400 34010KT P6SM FEW015
     FM290800 35005KT P6SM FEW009 SCT015=

USA.gov is the U.S. government's official web portal to all federal, state and local government web resources and services.